sensor_id;sensor_type;location;lat;lon;timestamp;pressure;altitude;pressure_sealevel;temperature;humidity
35758;BME280;21879;50.110;18.900;2023-03-14T00:08:02;97165.20;;;11.23;49.96
35758;BME280;21879;50.110;18.900;2023-03-14T00:18:28;97141.71;;;11.23;50.10
35758;BME280;21879;50.110;18.900;2023-03-14T00:28:55;97091.05;;;11.24;50.10
35758;BME280;21879;50.110;18.900;2023-03-14T00:39:20;97061.60;;;11.25;50.20
35758;BME280;21879;50.110;18.900;2023-03-14T00:49:46;97061.20;;;11.35;50.44
35758;BME280;21879;50.110;18.900;2023-03-14T01:10:40;97029.95;;;11.82;50.29
35758;BME280;21879;50.110;18.900;2023-03-14T01:21:12;97014.16;;;11.81;50.03
35758;BME280;21879;50.110;18.900;2023-03-14T01:31:37;96961.33;;;11.18;49.67
35758;BME280;21879;50.110;18.900;2023-03-14T01:42:04;96917.62;;;10.66;50.24
35758;BME280;21879;50.110;18.900;2023-03-14T01:52:34;96886.17;;;10.66;50.70
35758;BME280;21879;50.110;18.900;2023-03-14T02:03:06;96874.98;;;10.86;50.55
35758;BME280;21879;50.110;18.900;2023-03-14T02:13:35;96886.72;;;11.00;50.44
35758;BME280;21879;50.110;18.900;2023-03-14T02:24:07;96879.48;;;11.07;50.38
35758;BME280;21879;50.110;18.900;2023-03-14T02:34:35;96884.70;;;11.03;50.54
35758;BME280;21879;50.110;18.900;2023-03-14T02:45:38;96892.11;;;11.09;50.58
35758;BME280;21879;50.110;18.900;2023-03-14T02:56:07;96914.23;;;11.00;50.99
35758;BME280;21879;50.110;18.900;2023-03-14T03:06:34;96927.11;;;11.17;51.06
35758;BME280;21879;50.110;18.900;2023-03-14T03:17:00;96918.79;;;11.38;50.59
35758;BME280;21879;50.110;18.900;2023-03-14T03:27:26;96916.14;;;11.38;50.04
35758;BME280;21879;50.110;18.900;2023-03-14T03:37:52;96930.95;;;10.95;50.01
35758;BME280;21879;50.110;18.900;2023-03-14T03:48:18;96955.31;;;10.76;50.30
35758;BME280;21879;50.110;18.900;2023-03-14T03:58:43;96963.86;;;10.79;50.57
35758;BME280;21879;50.110;18.900;2023-03-14T04:09:10;96947.89;;;10.88;50.37
35758;BME280;21879;50.110;18.900;2023-03-14T04:19:36;96947.61;;;10.95;50.21
35758;BME280;21879;50.110;18.900;2023-03-14T04:30:01;96941.88;;;11.00;50.05
35758;BME280;21879;50.110;18.900;2023-03-14T04:40:27;96929.77;;;10.98;49.89
35758;BME280;21879;50.110;18.900;2023-03-14T04:50:53;96900.12;;;10.87;50.03
35758;BME280;21879;50.110;18.900;2023-03-14T05:01:19;96894.89;;;10.74;50.35
35758;BME280;21879;50.110;18.900;2023-03-14T05:11:45;96894.02;;;10.61;50.64
35758;BME280;21879;50.110;18.900;2023-03-14T05:22:11;96874.58;;;10.51;50.78
35758;BME280;21879;50.110;18.900;2023-03-14T05:32:37;96854.40;;;10.43;51.04
35758;BME280;21879;50.110;18.900;2023-03-14T05:43:03;96862.80;;;10.41;51.25
35758;BME280;21879;50.110;18.900;2023-03-14T05:53:28;96835.48;;;10.42;51.46
35758;BME280;21879;50.110;18.900;2023-03-14T06:03:54;96832.98;;;10.44;51.71
35758;BME280;21879;50.110;18.900;2023-03-14T06:14:21;96827.55;;;10.49;51.85
35758;BME280;21879;50.110;18.900;2023-03-14T06:24:46;96809.09;;;10.55;51.75
35758;BME280;21879;50.110;18.900;2023-03-14T06:35:12;96802.19;;;10.58;51.78
35758;BME280;21879;50.110;18.900;2023-03-14T06:45:38;96794.98;;;10.60;51.87
35758;BME280;21879;50.110;18.900;2023-03-14T06:56:04;96773.73;;;10.66;51.85
35758;BME280;21879;50.110;18.900;2023-03-14T07:06:30;96764.30;;;10.71;51.93
35758;BME280;21879;50.110;18.900;2023-03-14T07:16:56;96766.19;;;10.76;51.97
35758;BME280;21879;50.110;18.900;2023-03-14T07:27:21;96793.41;;;10.86;52.08
35758;BME280;21879;50.110;18.900;2023-03-14T07:37:47;96821.96;;;11.11;52.06
35758;BME280;21879;50.110;18.900;2023-03-14T07:48:13;96822.30;;;11.32;51.70
35758;BME280;21879;50.110;18.900;2023-03-14T07:58:47;96827.64;;;11.49;51.73
35758;BME280;21879;50.110;18.900;2023-03-14T08:09:13;96838.10;;;11.85;51.46
35758;BME280;21879;50.110;18.900;2023-03-14T08:19:39;96827.72;;;12.11;50.91
35758;BME280;21879;50.110;18.900;2023-03-14T08:30:08;96822.34;;;12.33;50.67
35758;BME280;21879;50.110;18.900;2023-03-14T08:40:35;96835.45;;;12.44;50.21
35758;BME280;21879;50.110;18.900;2023-03-14T08:51:07;96839.91;;;12.49;50.24
35758;BME280;21879;50.110;18.900;2023-03-14T09:01:33;96849.13;;;12.42;50.35
35758;BME280;21879;50.110;18.900;2023-03-14T09:11:59;96860.42;;;12.35;50.89
35758;BME280;21879;50.110;18.900;2023-03-14T09:22:25;96871.52;;;12.44;51.50
35758;BME280;21879;50.110;18.900;2023-03-14T09:32:51;96857.73;;;12.55;51.51
35758;BME280;21879;50.110;18.900;2023-03-14T09:43:17;96854.98;;;12.84;51.09
35758;BME280;21879;50.110;18.900;2023-03-14T09:53:45;96868.04;;;13.13;50.55
35758;BME280;21879;50.110;18.900;2023-03-14T10:04:17;96877.17;;;13.41;50.46
35758;BME280;21879;50.110;18.900;2023-03-14T10:14:49;96896.60;;;13.44;49.92
35758;BME280;21879;50.110;18.900;2023-03-14T10:25:27;96913.26;;;13.35;50.10
35758;BME280;21879;50.110;18.900;2023-03-14T10:35:58;96906.69;;;13.30;50.44
35758;BME280;21879;50.110;18.900;2023-03-14T10:46:26;96904.77;;;13.27;50.71
35758;BME280;21879;50.110;18.900;2023-03-14T10:57:00;96907.91;;;13.23;50.82
35758;BME280;21879;50.110;18.900;2023-03-14T11:07:29;96904.50;;;13.17;50.84
35758;BME280;21879;50.110;18.900;2023-03-14T11:29:16;96910.36;;;12.82;52.87
35758;BME280;21879;50.110;18.900;2023-03-14T11:39:50;96919.66;;;12.85;53.62
35758;BME280;21879;50.110;18.900;2023-03-14T11:50:25;96924.85;;;12.85;53.44
35758;BME280;21879;50.110;18.900;2023-03-14T12:00:54;96910.50;;;12.72;53.25
35758;BME280;21879;50.110;18.900;2023-03-14T12:11:28;96904.18;;;12.65;52.89
35758;BME280;21879;50.110;18.900;2023-03-14T12:21:57;96880.99;;;12.58;52.85
35758;BME280;21879;50.110;18.900;2023-03-14T12:32:24;96877.44;;;12.52;53.14
35758;BME280;21879;50.110;18.900;2023-03-14T12:43:00;96876.23;;;12.40;53.57
35758;BME280;21879;50.110;18.900;2023-03-14T12:53:53;96862.66;;;12.32;54.44
35758;BME280;21879;50.110;18.900;2023-03-14T13:04:28;96873.72;;;12.26;55.59
35758;BME280;21879;50.110;18.900;2023-03-14T13:15:11;96878.18;;;12.16;56.44
35758;BME280;21879;50.110;18.900;2023-03-14T13:25:38;96882.77;;;12.07;57.25
35758;BME280;21879;50.110;18.900;2023-03-14T13:36:06;96902.47;;;11.91;58.46
35758;BME280;21879;50.110;18.900;2023-03-14T13:46:35;96908.42;;;11.77;59.52
35758;BME280;21879;50.110;18.900;2023-03-14T13:57:03;96918.48;;;11.66;60.33
35758;BME280;21879;50.110;18.900;2023-03-14T14:07:30;96925.75;;;11.63;60.94
35758;BME280;21879;50.110;18.900;2023-03-14T14:17:58;96920.23;;;11.61;61.39
35758;BME280;21879;50.110;18.900;2023-03-14T14:28:28;96916.28;;;11.52;62.01
35758;BME280;21879;50.110;18.900;2023-03-14T14:39:00;96889.17;;;11.34;62.93
35758;BME280;21879;50.110;18.900;2023-03-14T14:49:30;96877.25;;;11.11;63.81
35758;BME280;21879;50.110;18.900;2023-03-14T15:00:00;96856.81;;;11.09;64.45
35758;BME280;21879;50.110;18.900;2023-03-14T15:10:28;96858.69;;;10.97;64.67
35758;BME280;21879;50.110;18.900;2023-03-14T15:20:54;96859.86;;;10.90;64.90
35758;BME280;21879;50.110;18.900;2023-03-14T15:31:20;96859.07;;;10.92;65.03
35758;BME280;21879;50.110;18.900;2023-03-14T15:41:46;96843.84;;;10.90;65.09
35758;BME280;21879;50.110;18.900;2023-03-14T15:52:12;96833.20;;;10.83;65.34
35758;BME280;21879;50.110;18.900;2023-03-14T16:02:38;96789.41;;;10.73;65.60
35758;BME280;21879;50.110;18.900;2023-03-14T16:13:05;96793.32;;;10.67;65.75
35758;BME280;21879;50.110;18.900;2023-03-14T16:23:31;96809.76;;;10.65;65.65
35758;BME280;21879;50.110;18.900;2023-03-14T16:34:01;96848.77;;;10.67;65.65
35758;BME280;21879;50.110;18.900;2023-03-14T16:44:28;96888.27;;;10.83;65.34
35758;BME280;21879;50.110;18.900;2023-03-14T16:54:55;96886.34;;;10.88;65.02
35758;BME280;21879;50.110;18.900;2023-03-14T17:05:20;96881.70;;;10.87;64.75
35758;BME280;21879;50.110;18.900;2023-03-14T17:15:51;96879.69;;;10.68;64.65
35758;BME280;21879;50.110;18.900;2023-03-14T17:26:17;96893.95;;;10.62;64.69
35758;BME280;21879;50.110;18.900;2023-03-14T17:36:42;96902.94;;;10.59;64.56
35758;BME280;21879;50.110;18.900;2023-03-14T17:47:09;96901.52;;;10.70;64.56
35758;BME280;21879;50.110;18.900;2023-03-14T17:57:36;96893.82;;;10.48;64.22
35758;BME280;21879;50.110;18.900;2023-03-14T18:08:03;96910.77;;;10.07;64.38
35758;BME280;21879;50.110;18.900;2023-03-14T18:18:29;96932.23;;;9.84;64.97
35758;BME280;21879;50.110;18.900;2023-03-14T18:28:55;96950.09;;;9.80;65.54
35758;BME280;21879;50.110;18.900;2023-03-14T18:39:21;96967.19;;;9.97;65.72
35758;BME280;21879;50.110;18.900;2023-03-14T18:49:47;96976.27;;;10.26;65.52
35758;BME280;21879;50.110;18.900;2023-03-14T19:00:14;96973.86;;;10.59;65.07
35758;BME280;21879;50.110;18.900;2023-03-14T19:10:42;96984.05;;;10.84;64.48
35758;BME280;21879;50.110;18.900;2023-03-14T19:21:09;96991.32;;;10.94;63.73
35758;BME280;21879;50.110;18.900;2023-03-14T19:31:35;96990.48;;;10.70;63.07
35758;BME280;21879;50.110;18.900;2023-03-14T19:42:01;96987.13;;;10.23;63.07
35758;BME280;21879;50.110;18.900;2023-03-14T19:52:27;96984.48;;;9.94;63.39
35758;BME280;21879;50.110;18.900;2023-03-14T20:02:53;96989.46;;;9.70;63.66
35758;BME280;21879;50.110;18.900;2023-03-14T20:13:19;97006.50;;;9.64;63.69
35758;BME280;21879;50.110;18.900;2023-03-14T20:23:46;97003.90;;;9.64;63.59
35758;BME280;21879;50.110;18.900;2023-03-14T20:34:12;97006.52;;;9.63;63.38
35758;BME280;21879;50.110;18.900;2023-03-14T20:44:38;97010.04;;;9.62;63.10
35758;BME280;21879;50.110;18.900;2023-03-14T20:55:06;97012.97;;;9.57;63.03
35758;BME280;21879;50.110;18.900;2023-03-14T21:05:32;97014.98;;;9.54;62.96
35758;BME280;21879;50.110;18.900;2023-03-14T21:15:59;97031.47;;;9.54;62.89
35758;BME280;21879;50.110;18.900;2023-03-14T21:26:25;97043.35;;;9.57;63.08
35758;BME280;21879;50.110;18.900;2023-03-14T21:36:51;97054.24;;;9.58;63.02
35758;BME280;21879;50.110;18.900;2023-03-14T21:47:18;97063.23;;;9.58;63.23
35758;BME280;21879;50.110;18.900;2023-03-14T21:57:47;97067.55;;;9.54;63.36
35758;BME280;21879;50.110;18.900;2023-03-14T22:08:15;97068.16;;;9.51;63.68
35758;BME280;21879;50.110;18.900;2023-03-14T22:18:41;97080.50;;;9.56;63.91
35758;BME280;21879;50.110;18.900;2023-03-14T22:29:07;97100.22;;;9.58;63.96
35758;BME280;21879;50.110;18.900;2023-03-14T22:39:33;97146.16;;;9.65;64.18
35758;BME280;21879;50.110;18.900;2023-03-14T22:49:58;97205.31;;;9.66;64.28
35758;BME280;21879;50.110;18.900;2023-03-14T23:00:26;97232.65;;;9.13;63.71
35758;BME280;21879;50.110;18.900;2023-03-14T23:10:59;97288.95;;;8.75;64.32
35758;BME280;21879;50.110;18.900;2023-03-14T23:21:26;97327.06;;;8.53;64.27
35758;BME280;21879;50.110;18.900;2023-03-14T23:31:51;97372.66;;;8.11;63.37
35758;BME280;21879;50.110;18.900;2023-03-14T23:42:18;97423.73;;;7.65;62.04
35758;BME280;21879;50.110;18.900;2023-03-14T23:52:43;97468.65;;;7.05;61.20
